»·PEaware :: N912NB KCMA-KSAC

N912NB :: KCMA-KSAC

FLIGHT INFORMATION

Flight Status: Arrived
Operator: Privately registered:
United States
More flights under this callsign
Pilot: Patricio R. (14780)
Aircraft: BOEING 737-200
(B732)
More flights by this aircraft type
Origin: KCMA Camarillo
United States
Destination: KSAC Sacramento Executive
United States
More flights between these airports :: More routes between these airports
Route: GMN V23 SAC
File this flight plan on PilotEdge
Remarks:
Altitude:
(Current/Filed)
32,000ft
Speed:
(Current/Filed)
440kts
Departed: 28-Sep-18 01:52 PM
Arrived: 28-Sep-18 02:49 PM
Distance/Time
Traveled:
283nm/0:56
Distance/Time
To Go:
Arrived

Flight Plot

Page will automatically refresh every two minutes.

Flight plan parsing failed; only flown route is shown


Map Options




Map Legend


Flown Route
Filed Route
Departure Airport
Arrival Airport
Navaid (VOR, NDB)
Fix

Horizontal Profiles

Position Reports

Time Latitude Longitude Heading Altitude Ground
Speed
28-Sep-18 13:41 34.210587 -119.095346 91 86ft 0kts
28-Sep-18 13:42 34.210587 -119.095346 91 86ft 0kts
28-Sep-18 13:43 34.210587 -119.095346 91 86ft 0kts
28-Sep-18 13:44 34.210587 -119.095346 91 86ft 0kts
28-Sep-18 13:45 34.210587 -119.095346 91 86ft 0kts
28-Sep-18 13:46 34.210587 -119.095346 91 86ft 0kts
28-Sep-18 13:47 34.210587 -119.095346 91 86ft 0kts
28-Sep-18 13:48 34.210587 -119.095346 91 86ft 0kts
28-Sep-18 13:49 34.210758 -119.094869 63 86ft 6kts
28-Sep-18 13:50 34.210986 -119.090908 90 86ft 14kts
28-Sep-18 13:51 34.210940 -119.085823 88 86ft 16kts
28-Sep-18 13:52 34.212426 -119.084622 359 86ft 7kts
28-Sep-18 13:53 34.213707 -119.086360 270 86ft 4kts
28-Sep-18 13:54 34.218366 -119.129429 286 1476ft 191kts
28-Sep-18 13:55 34.236075 -119.201567 265 3663ft 270kts
28-Sep-18 13:56 34.183054 -119.240736 156 7367ft 269kts
28-Sep-18 13:57 34.159908 -119.155267 69 10148ft 295kts
28-Sep-18 13:58 34.210837 -119.078628 48 12416ft 314kts
28-Sep-18 13:59 34.293279 -119.039020 16 14800ft 330kts
28-Sep-18 14:00 34.382504 -119.007822 15 16999ft 341kts
28-Sep-18 14:01 34.475136 -118.975701 15 18972ft 352kts
28-Sep-18 14:02 34.570245 -118.942736 15 20730ft 361kts
28-Sep-18 14:03 34.667683 -118.908923 15 22265ft 371kts
28-Sep-18 14:04 34.767491 -118.874004 15 23622ft 379kts
28-Sep-18 14:05 34.869680 -118.867660 333 24819ft 376kts
28-Sep-18 14:06 34.967586 -118.914943 338 25937ft 384kts
28-Sep-18 14:07 35.070435 -118.953758 341 26901ft 393kts
28-Sep-18 14:08 35.176388 -118.989021 340 27750ft 399kts
28-Sep-18 14:09 35.283292 -119.026433 340 28513ft 404kts
28-Sep-18 14:10 35.392111 -119.064587 340 29237ft 409kts
28-Sep-18 14:11 35.501134 -119.104105 334 29896ft 410kts
28-Sep-18 14:12 35.606613 -119.157380 333 30519ft 412kts
28-Sep-18 14:13 35.713159 -119.210688 333 31080ft 415kts
28-Sep-18 14:14 35.820170 -119.264186 333 31587ft 418kts
28-Sep-18 14:15 35.928331 -119.318397 333 31852ft 426kts
28-Sep-18 14:16 36.039435 -119.374236 333 31866ft 437kts
28-Sep-18 14:17 36.151474 -119.429675 335 31857ft 432kts
28-Sep-18 14:18 36.261170 -119.486011 333 31857ft 426kts
28-Sep-18 14:19 36.369679 -119.542586 333 31857ft 422kts
28-Sep-18 14:20 36.477408 -119.598977 333 31858ft 420kts
28-Sep-18 14:21 36.584346 -119.655211 331 31854ft 418kts
28-Sep-18 14:22 36.690737 -119.713470 331 31849ft 421kts
28-Sep-18 14:23 36.798176 -119.771811 331 31863ft 423kts
28-Sep-18 14:24 36.905669 -119.831083 324 31850ft 421kts
28-Sep-18 14:25 36.995076 -119.922562 316 31865ft 416kts
28-Sep-18 14:26 37.085738 -120.013115 316 31866ft 419kts
28-Sep-18 14:27 37.172785 -120.097952 317 31859ft 420kts
28-Sep-18 14:28 37.263130 -120.186793 316 30983ft 407kts
28-Sep-18 14:29 37.351492 -120.274309 317 28614ft 399kts
28-Sep-18 14:30 37.437144 -120.359402 317 26423ft 390kts
28-Sep-18 14:31 37.521726 -120.441880 318 24305ft 380kts
28-Sep-18 14:32 37.603424 -120.522708 318 22286ft 370kts
28-Sep-18 14:33 37.682478 -120.602398 318 20347ft 360kts
28-Sep-18 14:34 37.757933 -120.679644 317 18867ft 349kts
28-Sep-18 14:35 37.832469 -120.756507 318 17426ft 346kts
28-Sep-18 14:36 37.906276 -120.831959 319 15659ft 337kts
28-Sep-18 14:37 37.977742 -120.904953 319 13936ft 328kts
28-Sep-18 14:38 38.047943 -120.976858 319 12235ft 320kts
28-Sep-18 14:39 38.110468 -121.053261 307 10680ft 307kts
28-Sep-18 14:40 38.164509 -121.134255 307 9180ft 295kts
28-Sep-18 14:41 38.232637 -121.183297 334 8220ft 276kts
28-Sep-18 14:42 38.300186 -121.221021 334 7267ft 259kts
28-Sep-18 14:43 38.365470 -121.257429 334 6136ft 253kts
28-Sep-18 14:44 38.429284 -121.293169 334 5032ft 248kts
28-Sep-18 14:45 38.491687 -121.328405 334 4017ft 239kts
28-Sep-18 14:46 38.544327 -121.357882 334 3716ft 187kts
28-Sep-18 14:47 38.590891 -121.383988 331 2987ft 173kts
28-Sep-18 14:48 38.587588 -121.431595 220 1963ft 173kts
28-Sep-18 14:49 38.550695 -121.463019 212 1069ft 147kts
28-Sep-18 14:50 38.521705 -121.487102 212 130ft 115kts
28-Sep-18 14:51 38.508754 -121.499046 302 25ft 1kts
28-Sep-18 14:52 38.508841 -121.499157 327 25ft 6kts
28-Sep-18 14:53 38.511820 -121.496924 33 26ft 13kts
28-Sep-18 14:54 38.513395 -121.496428 253 28ft 6kts
28-Sep-18 14:55 38.512607 -121.497475 213 27ft 0kts
28-Sep-18 14:56 38.512607 -121.497475 213 27ft 0kts

Navigation Log

Ident Type
Flight plan parsing failed, navigation log unavailable